Time;durP1;ratioP1;P1;durP2;ratioP2;P2;SDS_P1;SDS_P2;PMS_P1;PMS_P2;Temp;Humidity;BMP_temperature;BMP_pressure;BME280_temperature;BME280_humidity;BME280_pressure;Samples;Min_cycle;Max_cycle;Signal;HPM_P1;HPM_P2
2021/04/02 00:00:15;;;;;;;4.20;3.80;;;;;;;;;;5031367;28;20033;-55
2021/04/02 00:02:42;;;;;;;3.03;2.83;;;;;;;;;;5027698;28;20482;-55
2021/04/02 00:05:10;;;;;;;4.03;3.60;;;;;;;;;;5025897;28;20453;-54
2021/04/02 00:07:37;;;;;;;2.85;1.98;;;;;;;;;;5033155;28;20048;-54
2021/04/02 00:10:06;;;;;;;2.72;2.63;;;;;;;;;;5024387;28;20037;-53
2021/04/02 00:12:32;;;;;;;3.05;2.70;;;;;;;;;;5022011;28;20128;-54
2021/04/02 00:14:58;;;;;;;4.68;4.18;;;;;;;;;;5027942;28;20061;-55
2021/04/02 00:17:24;;;;;;;2.65;2.03;;;;;;;;;;5025016;28;20063;-55
2021/04/02 00:19:51;;;;;;;3.60;3.30;;;;;;;;;;5032050;28;20128;-55
2021/04/02 00:22:17;;;;;;;4.35;4.07;;;;;;;;;;5025071;28;20033;-55
2021/04/02 00:24:43;;;;;;;2.78;2.67;;;;;;;;;;5031706;28;20065;-55
2021/04/02 00:27:09;;;;;;;3.45;3.35;;;;;;;;;;5026836;28;20489;-55
2021/04/02 00:29:35;;;;;;;2.58;2.47;;;;;;;;;;5027425;28;20033;-55
2021/04/02 00:32:02;;;;;;;4.97;4.65;;;;;;;;;;5031749;28;20042;-54
2021/04/02 00:34:28;;;;;;;4.20;3.90;;;;;;;;;;5021834;28;20044;-56
2021/04/02 00:36:54;;;;;;;5.28;4.88;;;;;;;;;;5018231;28;20120;-56
2021/04/02 00:39:21;;;;;;;4.80;4.55;;;;;;;;;;5029016;28;20088;-55
2021/04/02 00:41:47;;;;;;;5.30;5.00;;;;;;;;;;5023047;28;20395;-56
2021/04/02 00:44:13;;;;;;;5.78;5.57;;;;;;;;;;5032704;28;20116;-56
2021/04/02 00:46:40;;;;;;;5.15;4.72;;;;;;;;;;5022682;28;20041;-55
2021/04/02 00:49:06;;;;;;;4.15;3.90;;;;;;;;;;5017615;28;20033;-55
2021/04/02 00:51:35;;;;;;;3.83;2.67;;;;;;;;;;5029655;28;20359;-54
2021/04/02 00:54:01;;;;;;;3.58;2.67;;;;;;;;;;5025657;28;20044;-54
2021/04/02 00:56:29;;;;;;;3.15;2.80;;;;;;;;;;5030545;28;20040;-55
2021/04/02 00:58:56;;;;;;;3.83;3.53;;;;;;;;;;5025092;28;20029;-54
2021/04/02 01:01:22;;;;;;;2.65;2.10;;;;;;;;;;5027755;28;20056;-55
2021/04/02 01:03:48;;;;;;;4.00;2.78;;;;;;;;;;5028070;28;20528;-54
2021/04/02 01:06:16;;;;;;;3.17;2.97;;;;;;;;;;5021656;28;20073;-55
2021/04/02 01:08:43;;;;;;;3.17;2.65;;;;;;;;;;5032027;28;20026;-54
2021/04/02 01:11:11;;;;;;;3.08;2.78;;;;;;;;;;5026063;28;20037;-55
2021/04/02 01:13:37;;;;;;;3.35;3.03;;;;;;;;;;5026786;28;20060;-54
2021/04/02 01:16:11;;;;;;;3.67;3.58;;;;;;;;;;5027805;28;20193;-55
2021/04/02 01:18:43;;;;;;;6.65;3.85;;;;;;;;;;5023905;28;20037;-55
2021/04/02 01:21:19;;;;;;;6.53;6.32;;;;;;;;;;5029177;28;20046;-55
2021/04/02 01:24:05;;;;;;;6.90;6.65;;;;;;;;;;5028609;28;20044;-53
2021/04/02 01:26:37;;;;;;;7.85;7.63;;;;;;;;;;5022553;28;20088;-55
2021/04/02 01:29:09;;;;;;;8.13;7.80;;;;;;;;;;5028930;28;20032;-56
2021/04/02 01:31:37;;;;;;;8.05;7.68;;;;;;;;;;5021887;28;20033;-54
2021/04/02 01:34:04;;;;;;;7.05;6.75;;;;;;;;;;5025662;28;20136;-55
2021/04/02 01:36:31;;;;;;;8.10;8.00;;;;;;;;;;5030047;28;20053;-51
2021/04/02 01:38:58;;;;;;;9.43;9.00;;;;;;;;;;5026929;28;20433;-56
2021/04/02 01:41:26;;;;;;;10.50;10.20;;;;;;;;;;5021667;28;20137;-55
2021/04/02 01:43:54;;;;;;;10.80;10.40;;;;;;;;;;5024125;28;20045;-54
2021/04/02 01:46:21;;;;;;;8.35;7.80;;;;;;;;;;5024952;28;20431;-54
2021/04/02 01:48:52;;;;;;;9.43;9.20;;;;;;;;;;5029984;28;20056;-55
2021/04/02 01:51:18;;;;;;;9.63;9.00;;;;;;;;;;5024703;28;20440;-56
2021/04/02 01:53:47;;;;;;;11.95;11.25;;;;;;;;;;5027792;28;20049;-56
2021/04/02 01:56:14;;;;;;;12.20;11.93;;;;;;;;;;5026759;28;20099;-56
2021/04/02 01:58:41;;;;;;;13.23;12.45;;;;;;;;;;5023360;28;20049;-55
2021/04/02 02:01:09;;;;;;;10.68;10.38;;;;;;;;;;5030691;28;20120;-56
2021/04/02 02:03:36;;;;;;;15.50;14.82;;;;;;;;;;5024319;28;20026;-56
2021/04/02 02:06:03;;;;;;;14.27;13.60;;;;;;;;;;5020657;28;20041;-55
2021/04/02 02:08:30;;;;;;;14.25;13.70;;;;;;;;;;5031493;28;20048;-55
2021/04/02 02:11:01;;;;;;;13.45;13.05;;;;;;;;;;5024294;28;20042;-55
2021/04/02 02:13:29;;;;;;;14.18;13.88;;;;;;;;;;5026930;28;20050;-55
2021/04/02 02:15:55;;;;;;;13.88;13.43;;;;;;;;;;5028698;28;20037;-55
2021/04/02 02:18:24;;;;;;;12.02;11.75;;;;;;;;;;5031174;28;20072;-55
2021/04/02 02:20:51;;;;;;;14.43;13.93;;;;;;;;;;5033381;28;20045;-54
2021/04/02 02:23:17;;;;;;;15.50;14.88;;;;;;;;;;5027944;28;20048;-55
2021/04/02 02:25:44;;;;;;;15.68;15.30;;;;;;;;;;5022405;28;20120;-47
2021/04/02 02:28:10;;;;;;;12.48;12.07;;;;;;;;;;5029577;28;20053;-45
2021/04/02 02:30:37;;;;;;;17.98;17.30;;;;;;;;;;5027395;28;20057;-48
2021/04/02 02:33:03;;;;;;;15.30;15.10;;;;;;;;;;5033410;28;20124;-44
2021/04/02 02:35:30;;;;;;;14.77;14.15;;;;;;;;;;5022711;28;20041;-45
2021/04/02 02:37:58;;;;;;;13.98;13.52;;;;;;;;;;5021184;28;20068;-44
2021/04/02 02:40:26;;;;;;;13.10;12.73;;;;;;;;;;5022045;28;20041;-44
2021/04/02 02:42:53;;;;;;;13.40;12.80;;;;;;;;;;5021523;28;20045;-46
2021/04/02 02:45:20;;;;;;;9.43;9.13;;;;;;;;;;5034414;28;20033;-48
2021/04/02 02:47:46;;;;;;;14.75;14.40;;;;;;;;;;5026885;28;20052;-44
2021/04/02 02:50:15;;;;;;;11.45;11.25;;;;;;;;;;5032755;28;20084;-45
2021/04/02 02:52:41;;;;;;;13.50;13.00;;;;;;;;;;5015963;28;20050;-45
2021/04/02 02:55:09;;;;;;;11.40;11.05;;;;;;;;;;5022873;28;20095;-46
2021/04/02 02:57:36;;;;;;;14.52;14.18;;;;;;;;;;5033046;28;20061;-47
2021/04/02 03:00:07;;;;;;;15.40;15.00;;;;;;;;;;5027887;28;20045;-45
2021/04/02 03:02:34;;;;;;;16.83;16.17;;;;;;;;;;5028210;28;20030;-45
2021/04/02 03:05:01;;;;;;;17.13;16.52;;;;;;;;;;5032855;28;20053;-44
2021/04/02 03:07:28;;;;;;;19.38;18.98;;;;;;;;;;5026088;28;20030;-44
2021/04/02 03:09:56;;;;;;;18.02;17.67;;;;;;;;;;5031540;28;20041;-47
2021/04/02 03:12:23;;;;;;;18.50;18.10;;;;;;;;;;5029759;28;20046;-47
2021/04/02 03:14:50;;;;;;;18.35;18.13;;;;;;;;;;5028730;28;20484;-44
2021/04/02 03:17:17;;;;;;;19.80;19.20;;;;;;;;;;5032509;28;20050;-47
2021/04/02 03:19:44;;;;;;;17.45;17.15;;;;;;;;;;5024650;28;20037;-46
2021/04/02 03:22:10;;;;;;;17.50;17.20;;;;;;;;;;5032488;28;20397;-44
2021/04/02 03:24:38;;;;;;;17.88;17.38;;;;;;;;;;5028544;28;20037;-44
2021/04/02 03:27:05;;;;;;;15.63;15.32;;;;;;;;;;5027211;28;20045;-46
2021/04/02 03:29:32;;;;;;;17.58;17.30;;;;;;;;;;5030516;28;20072;-43
2021/04/02 03:32:01;;;;;;;19.35;18.80;;;;;;;;;;5021525;28;20418;-45
2021/04/02 03:34:28;;;;;;;19.45;19.00;;;;;;;;;;5027854;28;20044;-44
2021/04/02 03:36:55;;;;;;;17.92;17.52;;;;;;;;;;5030719;28;20481;-44
2021/04/02 03:39:25;;;;;;;17.23;16.52;;;;;;;;;;5026712;28;21478;-44
2021/04/02 03:41:54;;;;;;;18.73;18.02;;;;;;;;;;5034084;28;20390;-44
2021/04/02 03:44:21;;;;;;;18.67;18.08;;;;;;;;;;5025317;28;20600;-46
2021/04/02 03:46:48;;;;;;;18.63;18.25;;;;;;;;;;5028967;28;20042;-44
2021/04/02 03:49:15;;;;;;;18.27;17.77;;;;;;;;;;5030507;28;20444;-45
2021/04/02 03:51:42;;;;;;;18.02;17.63;;;;;;;;;;5026437;28;20490;-44
2021/04/02 03:54:10;;;;;;;18.35;17.95;;;;;;;;;;5032144;28;20045;-47
2021/04/02 03:56:37;;;;;;;19.33;18.83;;;;;;;;;;5018430;28;20042;-47
2021/04/02 03:59:04;;;;;;;19.40;19.08;;;;;;;;;;5020310;28;20440;-46
2021/04/02 04:01:32;;;;;;;18.67;18.23;;;;;;;;;;5031410;28;20063;-45
2021/04/02 04:03:59;;;;;;;18.80;18.30;;;;;;;;;;5024300;28;20032;-44
2021/04/02 04:06:26;;;;;;;19.33;18.63;;;;;;;;;;5030678;28;20038;-46
2021/04/02 04:08:55;;;;;;;19.58;18.15;;;;;;;;;;5027010;28;20056;-46
2021/04/02 04:11:23;;;;;;;17.30;16.45;;;;;;;;;;5024861;28;20042;-46
2021/04/02 04:13:49;;;;;;;18.00;17.15;;;;;;;;;;5016583;28;20049;-47
2021/04/02 04:16:18;;;;;;;19.02;18.50;;;;;;;;;;5025650;28;20095;-46
2021/04/02 04:18:47;;;;;;;20.80;20.15;;;;;;;;;;5023726;28;20041;-45
2021/04/02 04:21:14;;;;;;;20.00;19.60;;;;;;;;;;5029939;28;20037;-46
2021/04/02 04:23:41;;;;;;;17.98;17.40;;;;;;;;;;5025002;28;20045;-46
2021/04/02 04:26:09;;;;;;;19.92;19.30;;;;;;;;;;5031754;28;20048;-44
2021/04/02 04:28:37;;;;;;;21.45;20.85;;;;;;;;;;5025540;28;20038;-44
2021/04/02 04:31:07;;;;;;;20.25;19.27;;;;;;;;;;5020212;28;20040;-45
2021/04/02 04:33:33;;;;;;;20.20;19.17;;;;;;;;;;5030041;28;20053;-45
2021/04/02 04:36:00;;;;;;;19.52;18.98;;;;;;;;;;5025396;28;20046;-46
2021/04/02 04:38:28;;;;;;;19.70;19.17;;;;;;;;;;5032572;28;20029;-45
2021/04/02 04:40:55;;;;;;;19.85;19.40;;;;;;;;;;5023729;28;20053;-46
2021/04/02 04:43:22;;;;;;;20.42;19.80;;;;;;;;;;5026238;28;20100;-45
2021/04/02 04:45:48;;;;;;;19.85;19.33;;;;;;;;;;5031378;28;20462;-44
2021/04/02 04:48:14;;;;;;;19.30;18.48;;;;;;;;;;5024809;28;20108;-45
2021/04/02 04:50:41;;;;;;;20.58;19.95;;;;;;;;;;5022809;28;20041;-45
2021/04/02 04:53:22;;;;;;;18.67;18.38;;;;;;;;;;5026077;28;20124;-46
2021/04/02 04:55:51;;;;;;;20.52;19.90;;;;;;;;;;5021852;28;20046;-47
2021/04/02 04:58:19;;;;;;;22.27;21.50;;;;;;;;;;5018006;28;20048;-45
2021/04/02 05:00:46;;;;;;;19.25;18.85;;;;;;;;;;5024209;28;20046;-45
2021/04/02 05:03:14;;;;;;;20.33;19.73;;;;;;;;;;5025958;28;20034;-46
2021/04/02 05:05:42;;;;;;;23.05;22.25;;;;;;;;;;5028671;28;20469;-46
2021/04/02 05:08:11;;;;;;;21.75;21.05;;;;;;;;;;5023866;28;20030;-45
2021/04/02 05:10:40;;;;;;;21.60;21.00;;;;;;;;;;5015114;28;20068;-44
2021/04/02 05:13:07;;;;;;;21.45;20.80;;;;;;;;;;5025091;28;20041;-45
2021/04/02 05:15:34;;;;;;;22.17;21.38;;;;;;;;;;5028352;28;20065;-44
2021/04/02 05:18:00;;;;;;;20.42;19.65;;;;;;;;;;5029356;28;20061;-43
2021/04/02 05:20:39;;;;;;;22.02;21.25;;;;;;;;;;5024769;28;20049;-48
2021/04/02 05:23:05;;;;;;;19.80;19.30;;;;;;;;;;5029083;28;20033;-44
2021/04/02 05:25:31;;;;;;;20.30;19.73;;;;;;;;;;5025702;28;20543;-44
2021/04/02 05:27:57;;;;;;;21.63;20.20;;;;;;;;;;5025339;28;20057;-47
2021/04/02 05:30:24;;;;;;;21.63;20.63;;;;;;;;;;5030454;28;20500;-48
2021/04/02 05:32:54;;;;;;;21.63;20.80;;;;;;;;;;5018454;28;20037;-44
2021/04/02 05:35:21;;;;;;;22.50;21.30;;;;;;;;;;5024807;28;20048;-45
2021/04/02 05:37:47;;;;;;;22.85;22.15;;;;;;;;;;5026600;28;20489;-46
2021/04/02 05:40:13;;;;;;;21.65;21.05;;;;;;;;;;5024416;28;20042;-46
2021/04/02 05:42:41;;;;;;;20.60;19.83;;;;;;;;;;5030970;28;20033;-48
2021/04/02 05:45:08;;;;;;;23.40;22.60;;;;;;;;;;5024368;28;20045;-48
2021/04/02 05:47:35;;;;;;;24.48;23.38;;;;;;;;;;5028712;28;20046;-48
2021/04/02 05:50:01;;;;;;;24.77;23.52;;;;;;;;;;5026741;28;20029;-46
2021/04/02 05:52:31;;;;;;;30.73;28.27;;;;;;;;;;5024403;28;20073;-45
2021/04/02 05:54:59;;;;;;;28.52;26.38;;;;;;;;;;5034130;28;20124;-45
2021/04/02 05:57:26;;;;;;;24.02;22.88;;;;;;;;;;5024238;28;20087;-46
2021/04/02 05:59:53;;;;;;;24.60;23.00;;;;;;;;;;5028654;28;20046;-48
2021/04/02 06:02:19;;;;;;;25.75;24.15;;;;;;;;;;5029172;28;20037;-49
2021/04/02 06:04:45;;;;;;;28.10;26.35;;;;;;;;;;5021141;28;20053;-46
2021/04/02 06:07:12;;;;;;;25.42;23.85;;;;;;;;;;5030243;28;20038;-47
2021/04/02 06:09:38;;;;;;;26.00;24.10;;;;;;;;;;5025762;28;20037;-48
2021/04/02 06:12:05;;;;;;;22.58;21.45;;;;;;;;;;5025014;28;20518;-46
2021/04/02 06:14:31;;;;;;;21.23;20.17;;;;;;;;;;5030298;28;20053;-45
2021/04/02 06:16:57;;;;;;;16.42;16.02;;;;;;;;;;5024225;28;20038;-46
2021/04/02 06:19:24;;;;;;;14.15;13.65;;;;;;;;;;5030351;28;21461;-47
2021/04/02 06:21:52;;;;;;;10.30;9.35;;;;;;;;;;5024558;28;20458;-50
2021/04/02 06:24:37;;;;;;;7.10;6.75;;;;;;;;;;5026532;28;20471;-46
2021/04/02 06:27:05;;;;;;;8.30;7.72;;;;;;;;;;5013898;28;20044;-47
2021/04/02 06:29:35;;;;;;;6.93;6.43;;;;;;;;;;5023474;28;20480;-47
2021/04/02 06:32:02;;;;;;;6.93;6.57;;;;;;;;;;5027199;28;20073;-47
2021/04/02 06:34:28;;;;;;;7.25;6.75;;;;;;;;;;5029086;28;20132;-46
2021/04/02 06:37:01;;;;;;;7.80;6.05;;;;;;;;;;5022780;28;20040;-48
2021/04/02 06:39:31;;;;;;;11.30;6.80;;;;;;;;;;5030148;28;20029;-47
2021/04/02 06:42:01;;;;;;;8.18;7.57;;;;;;;;;;5025661;28;20132;-47
2021/04/02 06:44:32;;;;;;;9.23;8.55;;;;;;;;;;5025716;28;20477;-46
2021/04/02 06:46:59;;;;;;;8.40;7.75;;;;;;;;;;5029353;28;20477;-48
2021/04/02 06:49:26;;;;;;;7.35;7.05;;;;;;;;;;5023687;28;20034;-46
2021/04/02 06:51:53;;;;;;;7.00;6.30;;;;;;;;;;5029372;28;20046;-47
2021/04/02 06:54:22;;;;;;;7.03;6.63;;;;;;;;;;5027435;28;20092;-47
2021/04/02 06:56:54;;;;;;;6.22;5.72;;;;;;;;;;5027339;28;20498;-47
2021/04/02 06:59:21;;;;;;;6.60;6.18;;;;;;;;;;5033859;28;20045;-48
2021/04/02 07:01:48;;;;;;;7.53;7.22;;;;;;;;;;5026493;28;20054;-46
2021/04/02 07:04:15;;;;;;;6.53;6.05;;;;;;;;;;5032002;28;20501;-47
2021/04/02 07:06:41;;;;;;;5.85;5.65;;;;;;;;;;5021570;28;20077;-47
2021/04/02 07:09:12;;;;;;;6.38;5.80;;;;;;;;;;5027689;28;20065;-45
2021/04/02 07:11:40;;;;;;;6.53;6.10;;;;;;;;;;5032739;28;20064;-45
2021/04/02 07:14:07;;;;;;;6.53;5.93;;;;;;;;;;5026846;28;20115;-47
2021/04/02 07:16:34;;;;;;;7.13;6.50;;;;;;;;;;5030771;28;20393;-45
2021/04/02 07:19:01;;;;;;;6.68;5.82;;;;;;;;;;5018343;28;20072;-46
2021/04/02 07:21:30;;;;;;;5.18;4.72;;;;;;;;;;5023679;28;20041;-45
2021/04/02 07:23:57;;;;;;;3.65;3.45;;;;;;;;;;5033315;28;20038;-47
2021/04/02 07:26:24;;;;;;;3.75;3.65;;;;;;;;;;5028258;28;20450;-48
2021/04/02 07:28:51;;;;;;;4.47;4.28;;;;;;;;;;5029247;28;20127;-46
2021/04/02 07:31:19;;;;;;;4.22;3.95;;;;;;;;;;5032523;28;20037;-47
2021/04/02 07:33:46;;;;;;;5.75;3.33;;;;;;;;;;5023580;28;20371;-45
2021/04/02 07:36:13;;;;;;;2.65;2.45;;;;;;;;;;5023368;28;20537;-46
2021/04/02 07:38:40;;;;;;;4.07;3.53;;;;;;;;;;5029461;28;20033;-46
2021/04/02 07:41:10;;;;;;;3.53;3.13;;;;;;;;;;5027688;28;20054;-47
2021/04/02 07:43:51;;;;;;;3.30;3.03;;;;;;;;;;5032382;28;20037;-48
2021/04/02 07:46:20;;;;;;;3.53;3.05;;;;;;;;;;5025909;28;20120;-47
2021/04/02 07:48:48;;;;;;;4.00;2.97;;;;;;;;;;5029255;28;20115;-47
2021/04/02 07:51:14;;;;;;;3.72;2.97;;;;;;;;;;5031359;28;20041;-50
2021/04/02 07:53:59;;;;;;;3.70;2.55;;;;;;;;;;5026662;28;20042;-48
2021/04/02 07:56:32;;;;;;;5.72;2.95;;;;;;;;;;5031919;28;20057;-49
2021/04/02 07:59:03;;;;;;;8.05;2.97;;;;;;;;;;5029695;28;20136;-49
2021/04/02 08:01:31;;;;;;;5.80;2.80;;;;;;;;;;5028909;28;20091;-47
2021/04/02 08:04:00;;;;;;;2.60;2.40;;;;;;;;;;5032993;28;20037;-48
2021/04/02 08:06:29;;;;;;;3.80;3.60;;;;;;;;;;5025588;28;20037;-48
2021/04/02 08:08:56;;;;;;;3.90;3.60;;;;;;;;;;5029140;28;20036;-47
2021/04/02 08:11:22;;;;;;;5.47;3.00;;;;;;;;;;5030120;28;20046;-47
2021/04/02 08:13:49;;;;;;;3.88;3.13;;;;;;;;;;5024605;28;20046;-51
2021/04/02 08:16:36;;;;;;;4.03;3.83;;;;;;;;;;5016101;28;20053;-47
2021/04/02 08:19:22;;;;;;;3.15;2.50;;;;;;;;;;5027814;28;20053;-50
2021/04/02 08:21:50;;;;;;;3.00;2.75;;;;;;;;;;5026430;28;20065;-50
2021/04/02 08:24:18;;;;;;;6.43;2.08;;;;;;;;;;5031473;28;20041;-46
2021/04/02 08:26:44;;;;;;;2.47;2.38;;;;;;;;;;5025812;28;20052;-46
2021/04/02 08:29:12;;;;;;;4.35;2.83;;;;;;;;;;5028268;28;20500;-49
2021/04/02 08:31:40;;;;;;;3.15;2.67;;;;;;;;;;5030865;28;20045;-47
2021/04/02 08:34:06;;;;;;;2.20;1.80;;;;;;;;;;5025891;28;20072;-46
2021/04/02 08:36:33;;;;;;;2.88;2.65;;;;;;;;;;5027191;28;20123;-49
2021/04/02 08:38:59;;;;;;;2.92;2.28;;;;;;;;;;5026466;28;20494;-46
2021/04/02 08:41:27;;;;;;;4.70;1.92;;;;;;;;;;5026371;28;20042;-47
2021/04/02 08:43:53;;;;;;;7.05;2.13;;;;;;;;;;5031139;28;20556;-46
2021/04/02 08:46:32;;;;;;;2.40;1.80;;;;;;;;;;5024036;28;20045;-48
2021/04/02 08:48:58;;;;;;;1.80;1.40;;;;;;;;;;5029259;28;20048;-50
2021/04/02 08:51:24;;;;;;;2.60;1.88;;;;;;;;;;5028565;28;20103;-47
2021/04/02 08:53:51;;;;;;;5.80;1.80;;;;;;;;;;5023648;28;20058;-48
2021/04/02 08:56:19;;;;;;;3.65;1.80;;;;;;;;;;5032075;28;20049;-48
2021/04/02 08:58:46;;;;;;;6.47;1.95;;;;;;;;;;5023765;28;20073;-47
2021/04/02 09:01:13;;;;;;;1.42;1.13;;;;;;;;;;5029532;28;20040;-47
2021/04/02 09:03:40;;;;;;;1.42;1.00;;;;;;;;;;5028555;28;20049;-47
2021/04/02 09:06:06;;;;;;;8.13;1.10;;;;;;;;;;5024780;28;20092;-47
2021/04/02 09:08:33;;;;;;;3.08;1.10;;;;;;;;;;5032337;28;20034;-46
2021/04/02 09:11:00;;;;;;;5.20;1.10;;;;;;;;;;5026305;28;20053;-50
2021/04/02 09:13:27;;;;;;;2.28;1.30;;;;;;;;;;5028581;28;20069;-48
2021/04/02 09:15:54;;;;;;;2.20;1.20;;;;;;;;;;5028482;28;20048;-48
2021/04/02 09:18:28;;;;;;;1.98;1.02;;;;;;;;;;5024337;28;20060;-47
2021/04/02 09:20:56;;;;;;;1.70;1.00;;;;;;;;;;5028785;28;20123;-47
2021/04/02 09:23:23;;;;;;;2.35;0.90;;;;;;;;;;5026735;28;20042;-48
2021/04/02 09:25:49;;;;;;;1.52;1.05;;;;;;;;;;5025577;28;20034;-47
2021/04/02 09:28:25;;;;;;;6.57;1.10;;;;;;;;;;5031185;28;20037;-47
2021/04/02 09:31:16;;;;;;;3.30;1.00;;;;;;;;;;5017968;28;20486;-50
2021/04/02 09:33:43;;;;;;;1.77;0.80;;;;;;;;;;5020589;28;20080;-51
2021/04/02 09:36:10;;;;;;;1.33;1.10;;;;;;;;;;5014665;28;20042;-47
2021/04/02 09:38:36;;;;;;;1.45;1.35;;;;;;;;;;5023029;28;20056;-50
2021/04/02 09:41:03;;;;;;;1.10;0.80;;;;;;;;;;5030381;28;20409;-48
2021/04/02 09:43:48;;;;;;;1.63;0.80;;;;;;;;;;5026202;28;20127;-48
2021/04/02 09:46:26;;;;;;;3.63;1.00;;;;;;;;;;5022284;28;20038;-49
2021/04/02 09:48:52;;;;;;;1.45;0.90;;;;;;;;;;4982932;28;20085;-50
2021/04/02 09:51:18;;;;;;;5.38;0.90;;;;;;;;;;4985345;28;20125;-46
2021/04/02 09:53:44;;;;;;;2.08;0.90;;;;;;;;;;4983253;28;20045;-48
2021/04/02 09:56:11;;;;;;;1.38;0.80;;;;;;;;;;4985305;28;20499;-48
2021/04/02 09:58:37;;;;;;;0.80;0.80;;;;;;;;;;4985254;28;20042;-47
2021/04/02 10:01:03;;;;;;;5.05;1.10;;;;;;;;;;4986435;28;20503;-46
2021/04/02 10:03:29;;;;;;;4.78;0.90;;;;;;;;;;4985045;28;20050;-47
2021/04/02 10:05:56;;;;;;;2.25;0.90;;;;;;;;;;4989017;28;20081;-47
2021/04/02 10:08:22;;;;;;;0.90;0.90;;;;;;;;;;4988809;28;20050;-50
2021/04/02 10:10:48;;;;;;;3.55;1.00;;;;;;;;;;4986352;28;20599;-49
2021/04/02 10:13:14;;;;;;;2.15;0.85;;;;;;;;;;4990284;28;20049;-49
2021/04/02 10:15:41;;;;;;;2.25;0.98;;;;;;;;;;4985871;28;20133;-46
2021/04/02 10:18:07;;;;;;;3.33;1.88;;;;;;;;;;4986658;28;20038;-48
2021/04/02 10:20:34;;;;;;;1.70;0.80;;;;;;;;;;4986855;28;20054;-47
2021/04/02 10:23:00;;;;;;;2.90;0.80;;;;;;;;;;4986171;28;20106;-47
2021/04/02 10:25:26;;;;;;;1.00;1.00;;;;;;;;;;4991836;28;20046;-51
2021/04/02 10:27:53;;;;;;;1.48;1.38;;;;;;;;;;4983006;28;20034;-47
2021/04/02 10:30:19;;;;;;;1.33;1.00;;;;;;;;;;4983095;28;20042;-50
2021/04/02 10:32:46;;;;;;;5.07;1.90;;;;;;;;;;4991331;28;20042;-48
2021/04/02 10:35:12;;;;;;;1.30;1.10;;;;;;;;;;4989940;28;20042;-49
2021/04/02 10:37:39;;;;;;;2.03;1.20;;;;;;;;;;4995382;28;20045;-50
2021/04/02 10:40:05;;;;;;;3.28;1.00;;;;;;;;;;4990970;28;20437;-48
2021/04/02 10:42:31;;;;;;;2.22;0.98;;;;;;;;;;4989156;28;20050;-48
2021/04/02 10:44:58;;;;;;;1.27;0.90;;;;;;;;;;4990763;28;20066;-47
2021/04/02 10:47:24;;;;;;;1.38;1.38;;;;;;;;;;5000187;28;20053;-48
2021/04/02 10:49:50;;;;;;;1.10;0.98;;;;;;;;;;5032831;28;20684;-47
2021/04/02 10:52:16;;;;;;;0.80;0.80;;;;;;;;;;5027506;28;20041;-47
2021/04/02 10:54:43;;;;;;;4.88;1.23;;;;;;;;;;5032226;28;20387;-50
2021/04/02 10:57:09;;;;;;;1.30;0.80;;;;;;;;;;5030385;28;20069;-49
2021/04/02 10:59:35;;;;;;;3.88;0.70;;;;;;;;;;5026577;28;20037;-46
2021/04/02 11:02:02;;;;;;;3.78;0.70;;;;;;;;;;5017579;28;20129;-50
2021/04/02 11:04:28;;;;;;;4.38;0.80;;;;;;;;;;5030556;28;20103;-48
2021/04/02 11:06:54;;;;;;;1.85;0.75;;;;;;;;;;5029023;28;20030;-51
2021/04/02 11:09:21;;;;;;;2.42;0.70;;;;;;;;;;5027683;28;20135;-52
2021/04/02 11:11:47;;;;;;;0.70;0.70;;;;;;;;;;5023571;28;20121;-50
2021/04/02 11:14:13;;;;;;;0.80;0.80;;;;;;;;;;5033623;28;20513;-51
2021/04/02 11:16:39;;;;;;;1.40;0.70;;;;;;;;;;5028675;28;20029;-51
2021/04/02 11:19:05;;;;;;;2.78;0.73;;;;;;;;;;5029545;28;20041;-53
2021/04/02 11:21:32;;;;;;;0.70;0.70;;;;;;;;;;5030817;28;20045;-51
2021/04/02 11:23:58;;;;;;;1.02;0.70;;;;;;;;;;5027362;28;20045;-52
2021/04/02 11:26:24;;;;;;;1.42;0.70;;;;;;;;;;5032567;28;20037;-52
2021/04/02 11:28:51;;;;;;;1.35;0.70;;;;;;;;;;5027259;28;20401;-52
2021/04/02 11:31:18;;;;;;;0.73;0.73;;;;;;;;;;5028014;28;20434;-52
2021/04/02 11:33:45;;;;;;;1.20;1.10;;;;;;;;;;5032227;28;20037;-53
2021/04/02 11:36:11;;;;;;;0.70;0.70;;;;;;;;;;5026426;28;20045;-51
2021/04/02 11:38:38;;;;;;;0.82;0.70;;;;;;;;;;5031801;28;20038;-50
2021/04/02 11:41:04;;;;;;;0.60;0.60;;;;;;;;;;5026379;28;20038;-52
2021/04/02 11:43:30;;;;;;;2.42;0.70;;;;;;;;;;5028347;28;20128;-49
2021/04/02 11:45:57;;;;;;;2.35;0.80;;;;;;;;;;5016826;28;20061;-49
2021/04/02 11:48:24;;;;;;;1.48;0.60;;;;;;;;;;5024091;28;20556;-47
2021/04/02 11:50:50;;;;;;;0.80;0.60;;;;;;;;;;5028652;28;20046;-50
2021/04/02 11:53:16;;;;;;;2.25;0.70;;;;;;;;;;5029337;28;20052;-46
2021/04/02 11:55:43;;;;;;;1.67;0.60;;;;;;;;;;5027238;28;20069;-46
2021/04/02 11:58:09;;;;;;;1.25;0.70;;;;;;;;;;5032157;28;20046;-47
2021/04/02 12:00:35;;;;;;;2.45;0.68;;;;;;;;;;5023379;28;20041;-48
2021/04/02 12:03:02;;;;;;;0.82;0.60;;;;;;;;;;5020232;28;20030;-48
2021/04/02 12:05:29;;;;;;;0.60;0.60;;;;;;;;;;5028710;28;20038;-49
2021/04/02 12:07:55;;;;;;;0.95;0.70;;;;;;;;;;5026363;28;20056;-49
2021/04/02 12:10:22;;;;;;;0.70;0.70;;;;;;;;;;5025673;28;20052;-47
2021/04/02 12:12:48;;;;;;;1.17;0.90;;;;;;;;;;5021747;28;20042;-48
2021/04/02 12:15:15;;;;;;;0.70;0.70;;;;;;;;;;5019311;28;20132;-48
2021/04/02 12:17:41;;;;;;;1.67;0.80;;;;;;;;;;5029125;28;20045;-46
2021/04/02 12:20:10;;;;;;;0.50;0.50;;;;;;;;;;5025991;28;20037;-50
2021/04/02 12:22:36;;;;;;;1.75;0.70;;;;;;;;;;5031516;28;20087;-50
2021/04/02 12:25:07;;;;;;;1.23;0.60;;;;;;;;;;5025996;28;20038;-48
2021/04/02 12:27:33;;;;;;;0.73;0.63;;;;;;;;;;5028072;28;20532;-47
2021/04/02 12:30:05;;;;;;;2.10;0.60;;;;;;;;;;5030247;28;20137;-48
2021/04/02 12:32:31;;;;;;;5.72;1.08;;;;;;;;;;5024713;28;20088;-42
2021/04/02 12:34:58;;;;;;;1.15;0.70;;;;;;;;;;5032976;28;20033;-42
2021/04/02 12:37:24;;;;;;;3.47;0.70;;;;;;;;;;5026666;28;20037;-43
2021/04/02 12:39:50;;;;;;;2.35;0.60;;;;;;;;;;5026014;28;21442;-42
2021/04/02 12:42:16;;;;;;;1.58;0.85;;;;;;;;;;5030327;28;20463;-42
2021/04/02 12:44:42;;;;;;;1.58;0.60;;;;;;;;;;5025379;28;20061;-43
2021/04/02 12:47:08;;;;;;;1.48;0.50;;;;;;;;;;5029913;28;20107;-43
2021/04/02 12:49:35;;;;;;;5.38;0.57;;;;;;;;;;5027412;28;20413;-42
2021/04/02 12:52:01;;;;;;;0.65;0.50;;;;;;;;;;5026101;28;20046;-42
2021/04/02 12:54:27;;;;;;;2.17;0.50;;;;;;;;;;5017823;28;20137;-42
2021/04/02 12:56:54;;;;;;;3.08;0.50;;;;;;;;;;5024014;28;20026;-41
2021/04/02 12:59:20;;;;;;;0.57;0.57;;;;;;;;;;5032201;28;20069;-43
2021/04/02 13:01:46;;;;;;;2.58;0.50;;;;;;;;;;5024516;28;20110;-43
2021/04/02 13:04:13;;;;;;;2.47;0.50;;;;;;;;;;5026624;28;20385;-42
2021/04/02 13:06:39;;;;;;;0.60;0.50;;;;;;;;;;5030478;28;20048;-43
2021/04/02 13:09:05;;;;;;;0.77;0.50;;;;;;;;;;5025274;28;20075;-42
2021/04/02 13:11:32;;;;;;;1.20;0.50;;;;;;;;;;5030865;28;20505;-44
2021/04/02 13:13:58;;;;;;;1.10;0.50;;;;;;;;;;5024904;28;20425;-42
2021/04/02 13:16:25;;;;;;;1.67;0.50;;;;;;;;;;5025352;28;21188;-43
2021/04/02 13:18:51;;;;;;;0.98;0.60;;;;;;;;;;5032624;28;20102;-42
2021/04/02 13:21:17;;;;;;;0.50;0.50;;;;;;;;;;5018185;28;20053;-42
2021/04/02 13:23:44;;;;;;;1.00;0.50;;;;;;;;;;5017898;28;20425;-43
2021/04/02 13:26:10;;;;;;;0.85;0.40;;;;;;;;;;5026473;28;20037;-42
2021/04/02 13:28:37;;;;;;;1.30;0.60;;;;;;;;;;5027012;28;20046;-43
2021/04/02 13:31:03;;;;;;;0.50;0.50;;;;;;;;;;5032074;28;20620;-45
2021/04/02 13:33:29;;;;;;;2.65;0.52;;;;;;;;;;5019333;28;20499;-42
2021/04/02 13:35:57;;;;;;;0.77;0.70;;;;;;;;;;5017116;28;20029;-43
2021/04/02 13:38:24;;;;;;;0.60;0.50;;;;;;;;;;5027593;28;20489;-42
2021/04/02 13:40:50;;;;;;;2.58;0.60;;;;;;;;;;5024679;28;20517;-42
2021/04/02 13:43:16;;;;;;;0.50;0.50;;;;;;;;;;5031748;28;20462;-43
2021/04/02 13:45:43;;;;;;;1.58;0.55;;;;;;;;;;5022730;28;20047;-42
2021/04/02 13:48:09;;;;;;;1.25;0.50;;;;;;;;;;5026264;28;20120;-42
2021/04/02 13:50:35;;;;;;;0.50;0.50;;;;;;;;;;5028798;28;20624;-44
2021/04/02 13:53:02;;;;;;;3.53;0.60;;;;;;;;;;5024638;28;20509;-44
2021/04/02 13:55:29;;;;;;;1.40;0.63;;;;;;;;;;5017639;28;20041;-42
2021/04/02 13:57:56;;;;;;;2.63;0.50;;;;;;;;;;5026383;28;20045;-42
2021/04/02 14:00:24;;;;;;;1.27;0.50;;;;;;;;;;5025327;28;20038;-42
2021/04/02 14:02:50;;;;;;;1.20;0.57;;;;;;;;;;5028957;28;20083;-42
2021/04/02 14:05:17;;;;;;;0.88;0.50;;;;;;;;;;5028343;28;20371;-42
2021/04/02 14:07:44;;;;;;;0.90;0.50;;;;;;;;;;5034481;28;20038;-42
2021/04/02 14:10:11;;;;;;;1.30;0.50;;;;;;;;;;5029933;28;20077;-42
2021/04/02 14:12:38;;;;;;;2.00;0.50;;;;;;;;;;5028550;28;20046;-43
2021/04/02 14:15:06;;;;;;;3.65;0.50;;;;;;;;;;5035249;28;20385;-44
2021/04/02 14:17:33;;;;;;;0.50;0.50;;;;;;;;;;5028888;28;20104;-43
2021/04/02 14:20:00;;;;;;;1.27;0.43;;;;;;;;;;5033703;28;20045;-44
2021/04/02 14:22:27;;;;;;;2.70;0.50;;;;;;;;;;5029763;28;20128;-44
2021/04/02 14:24:53;;;;;;;0.63;0.63;;;;;;;;;;5029366;28;20105;-42
2021/04/02 14:27:19;;;;;;;1.65;0.50;;;;;;;;;;5034299;28;20555;-42
2021/04/02 14:29:46;;;;;;;0.90;0.60;;;;;;;;;;5028109;28;20416;-43
2021/04/02 14:32:12;;;;;;;0.70;0.50;;;;;;;;;;5033840;28;20092;-42
2021/04/02 14:34:38;;;;;;;5.53;0.60;;;;;;;;;;5030174;28;20046;-43
2021/04/02 14:37:05;;;;;;;0.63;0.50;;;;;;;;;;5028917;28;20049;-42